sensor_id;sensor_type;location;lat;lon;timestamp;temperature;humidity
8780;DHT22;62328;51.19929245;4.42130175;2023-08-21T00:01:41;21.00;99.90
8780;DHT22;62328;51.19929245;4.42130175;2023-08-21T00:04:08;21.00;99.90
8780;DHT22;62328;51.19929245;4.42130175;2023-08-21T00:06:35;21.00;99.90
8780;DHT22;62328;51.19929245;4.42130175;2023-08-21T00:09:02;21.00;99.90
8780;DHT22;62328;51.19929245;4.42130175;2023-08-21T00:11:29;21.00;99.90
8780;DHT22;62328;51.19929245;4.42130175;2023-08-21T00:13:56;21.00;99.90
8780;DHT22;62328;51.19929245;4.42130175;2023-08-21T00:16:23;21.00;99.90
8780;DHT22;62328;51.19929245;4.42130175;2023-08-21T00:18:53;21.00;99.90
8780;DHT22;62328;51.19929245;4.42130175;2023-08-21T00:21:20;21.10;99.90
8780;DHT22;62328;51.19929245;4.42130175;2023-08-21T00:23:47;21.10;99.90
8780;DHT22;62328;51.19929245;4.42130175;2023-08-21T00:26:14;21.10;99.90
8780;DHT22;62328;51.19929245;4.42130175;2023-08-21T00:28:41;21.10;99.90
8780;DHT22;62328;51.19929245;4.42130175;2023-08-21T00:31:08;21.10;99.90
8780;DHT22;62328;51.19929245;4.42130175;2023-08-21T00:33:35;21.10;99.90
8780;DHT22;62328;51.19929245;4.42130175;2023-08-21T00:36:04;21.00;99.90
8780;DHT22;62328;51.19929245;4.42130175;2023-08-21T00:38:31;21.00;99.90
8780;DHT22;62328;51.19929245;4.42130175;2023-08-21T00:40:58;21.00;99.90
8780;DHT22;62328;51.19929245;4.42130175;2023-08-21T00:43:25;21.00;99.90
8780;DHT22;62328;51.19929245;4.42130175;2023-08-21T00:45:52;21.00;99.90
8780;DHT22;62328;51.19929245;4.42130175;2023-08-21T00:48:19;20.90;99.90
8780;DHT22;62328;51.19929245;4.42130175;2023-08-21T00:50:47;20.90;99.90
8780;DHT22;62328;51.19929245;4.42130175;2023-08-21T00:53:16;20.90;99.90
8780;DHT22;62328;51.19929245;4.42130175;2023-08-21T00:55:43;20.90;99.90
8780;DHT22;62328;51.19929245;4.42130175;2023-08-21T00:58:10;20.90;99.90
8780;DHT22;62328;51.19929245;4.42130175;2023-08-21T01:00:38;20.90;99.90
8780;DHT22;62328;51.19929245;4.42130175;2023-08-21T01:03:06;20.80;99.90
8780;DHT22;62328;51.19929245;4.42130175;2023-08-21T01:05:35;20.80;99.90
8780;DHT22;62328;51.19929245;4.42130175;2023-08-21T01:08:04;20.70;99.90
8780;DHT22;62328;51.19929245;4.42130175;2023-08-21T01:10:48;20.70;99.90
8780;DHT22;62328;51.19929245;4.42130175;2023-08-21T01:13:26;20.70;99.90
8780;DHT22;62328;51.19929245;4.42130175;2023-08-21T01:15:55;20.70;99.90
8780;DHT22;62328;51.19929245;4.42130175;2023-08-21T01:18:22;20.60;99.90
8780;DHT22;62328;51.19929245;4.42130175;2023-08-21T01:20:52;20.60;99.90
8780;DHT22;62328;51.19929245;4.42130175;2023-08-21T01:23:32;20.60;99.90
8780;DHT22;62328;51.19929245;4.42130175;2023-08-21T01:25:59;20.50;99.90
8780;DHT22;62328;51.19929245;4.42130175;2023-08-21T01:28:27;20.50;99.90
8780;DHT22;62328;51.19929245;4.42130175;2023-08-21T01:30:59;20.50;99.90
8780;DHT22;62328;51.19929245;4.42130175;2023-08-21T01:33:26;20.50;99.90
8780;DHT22;62328;51.19929245;4.42130175;2023-08-21T01:35:58;20.50;99.90
8780;DHT22;62328;51.19929245;4.42130175;2023-08-21T01:38:25;20.50;99.90
8780;DHT22;62328;51.19929245;4.42130175;2023-08-21T01:40:55;20.50;99.90
8780;DHT22;62328;51.19929245;4.42130175;2023-08-21T01:43:22;20.40;99.90
8780;DHT22;62328;51.19929245;4.42130175;2023-08-21T01:45:49;20.40;99.90
8780;DHT22;62328;51.19929245;4.42130175;2023-08-21T01:48:16;20.40;99.90
8780;DHT22;62328;51.19929245;4.42130175;2023-08-21T01:50:43;20.40;99.90
8780;DHT22;62328;51.19929245;4.42130175;2023-08-21T01:53:10;20.40;99.90
8780;DHT22;62328;51.19929245;4.42130175;2023-08-21T01:55:37;20.30;99.90
8780;DHT22;62328;51.19929245;4.42130175;2023-08-21T01:58:05;20.30;99.90
8780;DHT22;62328;51.19929245;4.42130175;2023-08-21T02:00:32;20.30;99.90
8780;DHT22;62328;51.19929245;4.42130175;2023-08-21T02:02:59;20.30;99.90
8780;DHT22;62328;51.19929245;4.42130175;2023-08-21T02:05:26;20.30;99.90
8780;DHT22;62328;51.19929245;4.42130175;2023-08-21T02:07:53;20.30;99.90
8780;DHT22;62328;51.19929245;4.42130175;2023-08-21T02:10:20;20.30;99.90
8780;DHT22;62328;51.19929245;4.42130175;2023-08-21T02:12:48;20.30;99.90
8780;DHT22;62328;51.19929245;4.42130175;2023-08-21T02:15:17;20.30;99.90
8780;DHT22;62328;51.19929245;4.42130175;2023-08-21T02:17:44;20.30;99.90
8780;DHT22;62328;51.19929245;4.42130175;2023-08-21T02:20:11;20.30;99.90
8780;DHT22;62328;51.19929245;4.42130175;2023-08-21T02:22:38;20.40;99.90
8780;DHT22;62328;51.19929245;4.42130175;2023-08-21T02:25:05;20.40;99.90
8780;DHT22;62328;51.19929245;4.42130175;2023-08-21T02:27:32;20.40;99.90
8780;DHT22;62328;51.19929245;4.42130175;2023-08-21T02:29:59;20.40;99.90
8780;DHT22;62328;51.19929245;4.42130175;2023-08-21T02:32:28;20.40;99.90
8780;DHT22;62328;51.19929245;4.42130175;2023-08-21T02:34:55;20.50;99.90
8780;DHT22;62328;51.19929245;4.42130175;2023-08-21T02:37:22;20.40;99.90
8780;DHT22;62328;51.19929245;4.42130175;2023-08-21T02:39:49;20.40;99.90
8780;DHT22;62328;51.19929245;4.42130175;2023-08-21T02:42:16;20.40;99.90
8780;DHT22;62328;51.19929245;4.42130175;2023-08-21T02:44:43;20.40;99.90
8780;DHT22;62328;51.19929245;4.42130175;2023-08-21T02:47:10;20.30;99.90
8780;DHT22;62328;51.19929245;4.42130175;2023-08-21T02:49:38;20.30;99.90
8780;DHT22;62328;51.19929245;4.42130175;2023-08-21T02:52:05;20.30;99.90
8780;DHT22;62328;51.19929245;4.42130175;2023-08-21T02:54:32;20.30;99.90
8780;DHT22;62328;51.19929245;4.42130175;2023-08-21T02:56:59;20.30;99.90
8780;DHT22;62328;51.19929245;4.42130175;2023-08-21T02:59:26;20.30;99.90
8780;DHT22;62328;51.19929245;4.42130175;2023-08-21T03:01:53;20.30;99.90
8780;DHT22;62328;51.19929245;4.42130175;2023-08-21T03:04:20;20.30;99.90
8780;DHT22;62328;51.19929245;4.42130175;2023-08-21T03:06:48;20.30;99.90
8780;DHT22;62328;51.19929245;4.42130175;2023-08-21T03:09:15;20.30;99.90
8780;DHT22;62328;51.19929245;4.42130175;2023-08-21T03:11:43;20.30;99.90
8780;DHT22;62328;51.19929245;4.42130175;2023-08-21T03:14:10;20.30;99.90
8780;DHT22;62328;51.19929245;4.42130175;2023-08-21T03:16:37;20.30;99.90
8780;DHT22;62328;51.19929245;4.42130175;2023-08-21T03:19:04;20.30;99.90
8780;DHT22;62328;51.19929245;4.42130175;2023-08-21T03:21:31;20.20;99.90
8780;DHT22;62328;51.19929245;4.42130175;2023-08-21T03:23:59;20.20;99.90
8780;DHT22;62328;51.19929245;4.42130175;2023-08-21T03:26:26;20.30;99.90
8780;DHT22;62328;51.19929245;4.42130175;2023-08-21T03:28:53;20.20;99.90
8780;DHT22;62328;51.19929245;4.42130175;2023-08-21T03:31:20;20.20;99.90
8780;DHT22;62328;51.19929245;4.42130175;2023-08-21T03:33:47;20.20;99.90
8780;DHT22;62328;51.19929245;4.42130175;2023-08-21T03:36:14;20.10;99.90
8780;DHT22;62328;51.19929245;4.42130175;2023-08-21T03:38:41;20.20;99.90
8780;DHT22;62328;51.19929245;4.42130175;2023-08-21T03:41:12;20.10;99.90
8780;DHT22;62328;51.19929245;4.42130175;2023-08-21T03:43:39;20.10;99.90
8780;DHT22;62328;51.19929245;4.42130175;2023-08-21T03:46:06;20.00;99.90
8780;DHT22;62328;51.19929245;4.42130175;2023-08-21T03:48:33;20.00;99.90
8780;DHT22;62328;51.19929245;4.42130175;2023-08-21T03:51:01;20.00;99.90
8780;DHT22;62328;51.19929245;4.42130175;2023-08-21T03:53:28;20.00;99.90
8780;DHT22;62328;51.19929245;4.42130175;2023-08-21T03:55:55;20.00;99.90
8780;DHT22;62328;51.19929245;4.42130175;2023-08-21T03:58:23;20.00;99.90
8780;DHT22;62328;51.19929245;4.42130175;2023-08-21T04:00:51;20.00;99.90
8780;DHT22;62328;51.19929245;4.42130175;2023-08-21T04:03:17;20.00;99.90
8780;DHT22;62328;51.19929245;4.42130175;2023-08-21T04:05:44;19.90;99.90
8780;DHT22;62328;51.19929245;4.42130175;2023-08-21T04:08:11;20.00;99.90
8780;DHT22;62328;51.19929245;4.42130175;2023-08-21T04:10:38;20.00;99.90
8780;DHT22;62328;51.19929245;4.42130175;2023-08-21T04:13:07;20.00;99.90
8780;DHT22;62328;51.19929245;4.42130175;2023-08-21T04:15:36;20.00;99.90
8780;DHT22;62328;51.19929245;4.42130175;2023-08-21T04:18:03;20.00;99.90
8780;DHT22;62328;51.19929245;4.42130175;2023-08-21T04:20:30;19.90;99.90
8780;DHT22;62328;51.19929245;4.42130175;2023-08-21T04:22:57;19.90;99.90
8780;DHT22;62328;51.19929245;4.42130175;2023-08-21T04:25:24;19.90;99.90
8780;DHT22;62328;51.19929245;4.42130175;2023-08-21T04:27:51;19.90;99.90
8780;DHT22;62328;51.19929245;4.42130175;2023-08-21T04:30:18;19.90;99.90
8780;DHT22;62328;51.19929245;4.42130175;2023-08-21T04:32:48;19.80;99.90
8780;DHT22;62328;51.19929245;4.42130175;2023-08-21T04:35:15;19.80;99.90
8780;DHT22;62328;51.19929245;4.42130175;2023-08-21T04:37:45;19.80;99.90
8780;DHT22;62328;51.19929245;4.42130175;2023-08-21T04:40:12;19.80;99.90
8780;DHT22;62328;51.19929245;4.42130175;2023-08-21T04:42:39;19.80;99.90
8780;DHT22;62328;51.19929245;4.42130175;2023-08-21T04:45:07;19.80;99.90
8780;DHT22;62328;51.19929245;4.42130175;2023-08-21T04:47:38;19.80;99.90
8780;DHT22;62328;51.19929245;4.42130175;2023-08-21T04:50:07;19.80;99.90
8780;DHT22;62328;51.19929245;4.42130175;2023-08-21T04:52:34;19.80;99.90
8780;DHT22;62328;51.19929245;4.42130175;2023-08-21T04:55:01;19.80;99.90
8780;DHT22;62328;51.19929245;4.42130175;2023-08-21T04:57:28;19.80;99.90
8780;DHT22;62328;51.19929245;4.42130175;2023-08-21T04:59:55;19.80;99.90
8780;DHT22;62328;51.19929245;4.42130175;2023-08-21T05:02:22;19.80;99.90
8780;DHT22;62328;51.19929245;4.42130175;2023-08-21T05:04:49;19.80;99.90
8780;DHT22;62328;51.19929245;4.42130175;2023-08-21T05:07:17;19.80;99.90
8780;DHT22;62328;51.19929245;4.42130175;2023-08-21T05:09:44;19.90;99.90
8780;DHT22;62328;51.19929245;4.42130175;2023-08-21T05:12:13;19.90;99.90
8780;DHT22;62328;51.19929245;4.42130175;2023-08-21T05:14:40;20.00;99.90
8780;DHT22;62328;51.19929245;4.42130175;2023-08-21T05:17:07;20.00;99.90
8780;DHT22;62328;51.19929245;4.42130175;2023-08-21T05:19:34;19.90;99.90
8780;DHT22;62328;51.19929245;4.42130175;2023-08-21T05:22:01;20.00;99.90
8780;DHT22;62328;51.19929245;4.42130175;2023-08-21T05:24:30;20.00;99.90
8780;DHT22;62328;51.19929245;4.42130175;2023-08-21T05:26:58;19.90;99.90
8780;DHT22;62328;51.19929245;4.42130175;2023-08-21T05:29:25;20.00;99.90
8780;DHT22;62328;51.19929245;4.42130175;2023-08-21T05:31:52;20.00;99.90
8780;DHT22;62328;51.19929245;4.42130175;2023-08-21T05:34:19;20.00;99.90
8780;DHT22;62328;51.19929245;4.42130175;2023-08-21T05:36:46;20.00;99.90
8780;DHT22;62328;51.19929245;4.42130175;2023-08-21T05:39:13;20.00;99.90
8780;DHT22;62328;51.19929245;4.42130175;2023-08-21T05:41:41;20.00;99.90
8780;DHT22;62328;51.19929245;4.42130175;2023-08-21T05:44:08;20.10;99.90
8780;DHT22;62328;51.19929245;4.42130175;2023-08-21T05:46:35;20.10;99.90
8780;DHT22;62328;51.19929245;4.42130175;2023-08-21T05:49:03;20.00;99.90
8780;DHT22;62328;51.19929245;4.42130175;2023-08-21T05:51:31;20.00;99.90
8780;DHT22;62328;51.19929245;4.42130175;2023-08-21T05:53:57;20.00;99.90
8780;DHT22;62328;51.19929245;4.42130175;2023-08-21T05:56:24;20.00;99.90
8780;DHT22;62328;51.19929245;4.42130175;2023-08-21T05:58:53;20.00;99.90
8780;DHT22;62328;51.19929245;4.42130175;2023-08-21T06:01:20;20.00;99.90
8780;DHT22;62328;51.19929245;4.42130175;2023-08-21T06:03:47;20.00;99.90
8780;DHT22;62328;51.19929245;4.42130175;2023-08-21T06:06:14;20.00;99.90
8780;DHT22;62328;51.19929245;4.42130175;2023-08-21T06:08:41;20.00;99.90
8780;DHT22;62328;51.19929245;4.42130175;2023-08-21T06:11:08;20.00;99.90
8780;DHT22;62328;51.19929245;4.42130175;2023-08-21T06:13:35;20.00;99.90
8780;DHT22;62328;51.19929245;4.42130175;2023-08-21T06:16:04;20.00;99.90
8780;DHT22;62328;51.19929245;4.42130175;2023-08-21T06:18:31;20.00;99.90
8780;DHT22;62328;51.19929245;4.42130175;2023-08-21T06:20:58;20.00;99.90
8780;DHT22;62328;51.19929245;4.42130175;2023-08-21T06:23:25;20.00;99.90
8780;DHT22;62328;51.19929245;4.42130175;2023-08-21T06:25:52;20.00;99.90
8780;DHT22;62328;51.19929245;4.42130175;2023-08-21T06:28:19;20.00;99.90
8780;DHT22;62328;51.19929245;4.42130175;2023-08-21T06:36:00;20.10;99.90
8780;DHT22;62328;51.19929245;4.42130175;2023-08-21T06:38:27;20.10;99.90
8780;DHT22;62328;51.19929245;4.42130175;2023-08-21T06:40:54;20.10;99.90
8780;DHT22;62328;51.19929245;4.42130175;2023-08-21T06:43:21;20.10;99.90
8780;DHT22;62328;51.19929245;4.42130175;2023-08-21T06:45:48;20.20;99.90
8780;DHT22;62328;51.19929245;4.42130175;2023-08-21T06:48:15;20.20;99.90
8780;DHT22;62328;51.19929245;4.42130175;2023-08-21T06:50:44;20.20;99.90
8780;DHT22;62328;51.19929245;4.42130175;2023-08-21T06:53:12;20.20;99.90
8780;DHT22;62328;51.19929245;4.42130175;2023-08-21T06:55:39;20.20;99.90
8780;DHT22;62328;51.19929245;4.42130175;2023-08-21T06:58:06;20.30;99.90
8780;DHT22;62328;51.19929245;4.42130175;2023-08-21T07:00:33;20.30;99.90
8780;DHT22;62328;51.19929245;4.42130175;2023-08-21T07:03:00;20.30;99.90
8780;DHT22;62328;51.19929245;4.42130175;2023-08-21T07:05:28;20.40;99.90
8780;DHT22;62328;51.19929245;4.42130175;2023-08-21T07:07:55;20.40;99.90
8780;DHT22;62328;51.19929245;4.42130175;2023-08-21T07:10:24;20.40;99.90
8780;DHT22;62328;51.19929245;4.42130175;2023-08-21T07:12:53;20.50;99.90
8780;DHT22;62328;51.19929245;4.42130175;2023-08-21T07:15:20;20.60;99.90
8780;DHT22;62328;51.19929245;4.42130175;2023-08-21T07:17:47;20.60;99.90
8780;DHT22;62328;51.19929245;4.42130175;2023-08-21T07:20:14;20.70;99.90
8780;DHT22;62328;51.19929245;4.42130175;2023-08-21T07:22:40;20.70;99.90
8780;DHT22;62328;51.19929245;4.42130175;2023-08-21T07:25:08;20.80;99.90
8780;DHT22;62328;51.19929245;4.42130175;2023-08-21T07:27:37;20.80;99.90
8780;DHT22;62328;51.19929245;4.42130175;2023-08-21T07:30:06;20.90;99.90
8780;DHT22;62328;51.19929245;4.42130175;2023-08-21T07:32:33;21.10;99.90
8780;DHT22;62328;51.19929245;4.42130175;2023-08-21T07:35:00;21.10;99.90
8780;DHT22;62328;51.19929245;4.42130175;2023-08-21T07:37:27;21.20;99.90
8780;DHT22;62328;51.19929245;4.42130175;2023-08-21T07:39:54;21.20;99.90
8780;DHT22;62328;51.19929245;4.42130175;2023-08-21T07:42:23;21.20;99.90
8780;DHT22;62328;51.19929245;4.42130175;2023-08-21T07:44:51;21.30;99.90
8780;DHT22;62328;51.19929245;4.42130175;2023-08-21T07:47:18;21.30;99.90
8780;DHT22;62328;51.19929245;4.42130175;2023-08-21T07:49:45;21.30;99.90
8780;DHT22;62328;51.19929245;4.42130175;2023-08-21T07:52:12;21.30;99.90
8780;DHT22;62328;51.19929245;4.42130175;2023-08-21T07:54:41;21.20;99.90
8780;DHT22;62328;51.19929245;4.42130175;2023-08-21T07:57:08;21.30;99.90
8780;DHT22;62328;51.19929245;4.42130175;2023-08-21T07:59:35;21.30;99.90
8780;DHT22;62328;51.19929245;4.42130175;2023-08-21T08:02:04;21.40;99.90
8780;DHT22;62328;51.19929245;4.42130175;2023-08-21T08:04:31;21.40;99.90
8780;DHT22;62328;51.19929245;4.42130175;2023-08-21T08:06:58;21.60;99.90
8780;DHT22;62328;51.19929245;4.42130175;2023-08-21T08:09:25;21.60;99.90
8780;DHT22;62328;51.19929245;4.42130175;2023-08-21T08:11:51;21.60;99.90
8780;DHT22;62328;51.19929245;4.42130175;2023-08-21T08:14:18;21.70;99.90
8780;DHT22;62328;51.19929245;4.42130175;2023-08-21T08:16:45;21.90;99.90
8780;DHT22;62328;51.19929245;4.42130175;2023-08-21T08:19:14;21.90;99.90
8780;DHT22;62328;51.19929245;4.42130175;2023-08-21T08:21:41;21.90;99.90
8780;DHT22;62328;51.19929245;4.42130175;2023-08-21T08:24:08;21.90;99.90
8780;DHT22;62328;51.19929245;4.42130175;2023-08-21T08:26:34;21.90;99.90
8780;DHT22;62328;51.19929245;4.42130175;2023-08-21T08:29:01;21.90;99.90
8780;DHT22;62328;51.19929245;4.42130175;2023-08-21T08:31:28;22.00;99.90
8780;DHT22;62328;51.19929245;4.42130175;2023-08-21T08:33:55;22.10;99.90
8780;DHT22;62328;51.19929245;4.42130175;2023-08-21T08:36:25;22.10;99.90
8780;DHT22;62328;51.19929245;4.42130175;2023-08-21T08:38:52;22.10;99.90
8780;DHT22;62328;51.19929245;4.42130175;2023-08-21T08:41:25;22.20;99.90
8780;DHT22;62328;51.19929245;4.42130175;2023-08-21T08:43:57;22.20;99.90
8780;DHT22;62328;51.19929245;4.42130175;2023-08-21T08:46:24;22.20;99.90
8780;DHT22;62328;51.19929245;4.42130175;2023-08-21T08:48:52;22.30;99.90
8780;DHT22;62328;51.19929245;4.42130175;2023-08-21T08:51:19;22.40;99.90
8780;DHT22;62328;51.19929245;4.42130175;2023-08-21T08:53:47;22.40;99.90
8780;DHT22;62328;51.19929245;4.42130175;2023-08-21T08:56:15;22.30;99.90
8780;DHT22;62328;51.19929245;4.42130175;2023-08-21T08:58:41;22.40;99.90
8780;DHT22;62328;51.19929245;4.42130175;2023-08-21T09:01:09;22.50;99.90
8780;DHT22;62328;51.19929245;4.42130175;2023-08-21T09:03:36;22.50;99.90
8780;DHT22;62328;51.19929245;4.42130175;2023-08-21T09:06:04;22.60;99.90
8780;DHT22;62328;51.19929245;4.42130175;2023-08-21T09:08:31;22.60;99.90
8780;DHT22;62328;51.19929245;4.42130175;2023-08-21T09:11:01;22.60;99.90
8780;DHT22;62328;51.19929245;4.42130175;2023-08-21T09:13:28;22.60;99.90
8780;DHT22;62328;51.19929245;4.42130175;2023-08-21T09:15:57;22.80;99.90
8780;DHT22;62328;51.19929245;4.42130175;2023-08-21T09:18:25;22.80;99.90
8780;DHT22;62328;51.19929245;4.42130175;2023-08-21T09:20:52;23.00;99.90
8780;DHT22;62328;51.19929245;4.42130175;2023-08-21T09:23:20;23.10;99.90
8780;DHT22;62328;51.19929245;4.42130175;2023-08-21T09:25:48;23.10;99.90
8780;DHT22;62328;51.19929245;4.42130175;2023-08-21T09:28:18;23.10;99.90
8780;DHT22;62328;51.19929245;4.42130175;2023-08-21T09:30:47;23.10;99.90
8780;DHT22;62328;51.19929245;4.42130175;2023-08-21T09:33:17;23.10;99.90
8780;DHT22;62328;51.19929245;4.42130175;2023-08-21T09:35:45;23.10;99.90
8780;DHT22;62328;51.19929245;4.42130175;2023-08-21T09:38:12;23.20;99.90
8780;DHT22;62328;51.19929245;4.42130175;2023-08-21T09:40:40;23.20;99.90
8780;DHT22;62328;51.19929245;4.42130175;2023-08-21T09:43:09;23.30;99.90
8780;DHT22;62328;51.19929245;4.42130175;2023-08-21T09:45:40;23.30;99.90
8780;DHT22;62328;51.19929245;4.42130175;2023-08-21T09:48:07;23.40;99.90
8780;DHT22;62328;51.19929245;4.42130175;2023-08-21T09:50:35;23.50;99.90
8780;DHT22;62328;51.19929245;4.42130175;2023-08-21T09:53:06;23.50;99.90
8780;DHT22;62328;51.19929245;4.42130175;2023-08-21T09:55:33;23.60;99.90
8780;DHT22;62328;51.19929245;4.42130175;2023-08-21T09:58:02;23.70;99.90
8780;DHT22;62328;51.19929245;4.42130175;2023-08-21T10:00:30;23.80;99.90
8780;DHT22;62328;51.19929245;4.42130175;2023-08-21T10:03:01;23.90;99.90
8780;DHT22;62328;51.19929245;4.42130175;2023-08-21T10:05:30;23.90;99.90
8780;DHT22;62328;51.19929245;4.42130175;2023-08-21T10:07:59;24.00;99.90
8780;DHT22;62328;51.19929245;4.42130175;2023-08-21T10:10:29;24.00;99.90
8780;DHT22;62328;51.19929245;4.42130175;2023-08-21T10:12:56;24.00;99.90
8780;DHT22;62328;51.19929245;4.42130175;2023-08-21T10:15:25;24.10;99.90
8780;DHT22;62328;51.19929245;4.42130175;2023-08-21T10:17:52;24.10;99.90
8780;DHT22;62328;51.19929245;4.42130175;2023-08-21T10:20:22;24.10;99.90
8780;DHT22;62328;51.19929245;4.42130175;2023-08-21T10:22:52;24.30;99.90
8780;DHT22;62328;51.19929245;4.42130175;2023-08-21T10:25:21;24.30;99.90
8780;DHT22;62328;51.19929245;4.42130175;2023-08-21T10:27:50;24.40;99.90
8780;DHT22;62328;51.19929245;4.42130175;2023-08-21T10:30:21;24.50;99.90
8780;DHT22;62328;51.19929245;4.42130175;2023-08-21T10:32:50;24.60;99.90
8780;DHT22;62328;51.19929245;4.42130175;2023-08-21T10:35:19;24.60;99.90
8780;DHT22;62328;51.19929245;4.42130175;2023-08-21T10:38:08;24.70;99.90
8780;DHT22;62328;51.19929245;4.42130175;2023-08-21T10:40:36;24.80;99.90
8780;DHT22;62328;51.19929245;4.42130175;2023-08-21T10:43:04;25.00;99.90
8780;DHT22;62328;51.19929245;4.42130175;2023-08-21T10:45:31;25.10;99.90
8780;DHT22;62328;51.19929245;4.42130175;2023-08-21T10:47:58;25.10;99.90
8780;DHT22;62328;51.19929245;4.42130175;2023-08-21T10:50:26;25.10;99.90
8780;DHT22;62328;51.19929245;4.42130175;2023-08-21T10:52:53;25.10;99.90
8780;DHT22;62328;51.19929245;4.42130175;2023-08-21T10:55:22;25.10;99.90
8780;DHT22;62328;51.19929245;4.42130175;2023-08-21T10:57:49;25.10;99.90
8780;DHT22;62328;51.19929245;4.42130175;2023-08-21T11:00:18;25.10;99.90
8780;DHT22;62328;51.19929245;4.42130175;2023-08-21T11:02:47;25.00;99.90
8780;DHT22;62328;51.19929245;4.42130175;2023-08-21T11:05:15;25.00;99.90
8780;DHT22;62328;51.19929245;4.42130175;2023-08-21T11:07:44;25.00;99.90
8780;DHT22;62328;51.19929245;4.42130175;2023-08-21T11:10:14;25.00;99.90
8780;DHT22;62328;51.19929245;4.42130175;2023-08-21T11:12:50;25.00;99.90
8780;DHT22;62328;51.19929245;4.42130175;2023-08-21T11:15:18;25.00;99.90
8780;DHT22;62328;51.19929245;4.42130175;2023-08-21T11:17:55;25.00;99.90
8780;DHT22;62328;51.19929245;4.42130175;2023-08-21T11:20:26;25.00;99.90
8780;DHT22;62328;51.19929245;4.42130175;2023-08-21T11:22:56;25.10;99.90
8780;DHT22;62328;51.19929245;4.42130175;2023-08-21T11:25:23;25.10;99.90
8780;DHT22;62328;51.19929245;4.42130175;2023-08-21T11:27:52;25.10;99.90
8780;DHT22;62328;51.19929245;4.42130175;2023-08-21T11:30:22;25.10;99.90
8780;DHT22;62328;51.19929245;4.42130175;2023-08-21T11:32:49;25.00;99.90
8780;DHT22;62328;51.19929245;4.42130175;2023-08-21T11:35:16;25.10;99.90
8780;DHT22;62328;51.19929245;4.42130175;2023-08-21T11:37:44;25.20;99.90
8780;DHT22;62328;51.19929245;4.42130175;2023-08-21T11:40:13;25.30;99.90
8780;DHT22;62328;51.19929245;4.42130175;2023-08-21T11:42:40;25.30;99.90
8780;DHT22;62328;51.19929245;4.42130175;2023-08-21T11:45:10;25.30;99.90
8780;DHT22;62328;51.19929245;4.42130175;2023-08-21T11:47:37;25.40;99.90
8780;DHT22;62328;51.19929245;4.42130175;2023-08-21T11:50:08;25.30;99.90
8780;DHT22;62328;51.19929245;4.42130175;2023-08-21T11:52:38;25.30;99.90
8780;DHT22;62328;51.19929245;4.42130175;2023-08-21T11:55:08;25.30;99.90
8780;DHT22;62328;51.19929245;4.42130175;2023-08-21T11:57:46;25.30;99.90
8780;DHT22;62328;51.19929245;4.42130175;2023-08-21T12:00:15;25.50;99.90
8780;DHT22;62328;51.19929245;4.42130175;2023-08-21T12:02:53;25.60;99.90
8780;DHT22;62328;51.19929245;4.42130175;2023-08-21T12:05:20;25.60;99.90
8780;DHT22;62328;51.19929245;4.42130175;2023-08-21T12:07:48;25.60;99.90
8780;DHT22;62328;51.19929245;4.42130175;2023-08-21T12:10:21;25.60;99.90
8780;DHT22;62328;51.19929245;4.42130175;2023-08-21T12:12:48;25.70;99.90
8780;DHT22;62328;51.19929245;4.42130175;2023-08-21T12:15:16;25.80;99.90
8780;DHT22;62328;51.19929245;4.42130175;2023-08-21T12:17:43;25.90;99.90
8780;DHT22;62328;51.19929245;4.42130175;2023-08-21T12:20:11;25.80;99.90
8780;DHT22;62328;51.19929245;4.42130175;2023-08-21T12:22:39;25.80;99.90
8780;DHT22;62328;51.19929245;4.42130175;2023-08-21T12:25:08;25.70;99.90
8780;DHT22;62328;51.19929245;4.42130175;2023-08-21T12:27:35;25.90;99.90
8780;DHT22;62328;51.19929245;4.42130175;2023-08-21T12:30:03;26.00;99.90
8780;DHT22;62328;51.19929245;4.42130175;2023-08-21T12:32:31;25.90;99.90
8780;DHT22;62328;51.19929245;4.42130175;2023-08-21T12:34:58;25.90;99.90
8780;DHT22;62328;51.19929245;4.42130175;2023-08-21T12:37:25;25.90;99.90
8780;DHT22;62328;51.19929245;4.42130175;2023-08-21T12:39:53;25.90;99.90
8780;DHT22;62328;51.19929245;4.42130175;2023-08-21T12:42:21;25.90;99.90
8780;DHT22;62328;51.19929245;4.42130175;2023-08-21T12:44:48;25.90;99.90
8780;DHT22;62328;51.19929245;4.42130175;2023-08-21T12:47:15;25.90;99.90
8780;DHT22;62328;51.19929245;4.42130175;2023-08-21T12:49:43;26.00;99.90
8780;DHT22;62328;51.19929245;4.42130175;2023-08-21T12:52:10;25.90;99.90
8780;DHT22;62328;51.19929245;4.42130175;2023-08-21T12:54:38;26.10;99.90
8780;DHT22;62328;51.19929245;4.42130175;2023-08-21T12:57:05;26.10;99.90
8780;DHT22;62328;51.19929245;4.42130175;2023-08-21T12:59:33;26.10;99.90
8780;DHT22;62328;51.19929245;4.42130175;2023-08-21T13:02:00;26.10;99.90
8780;DHT22;62328;51.19929245;4.42130175;2023-08-21T13:04:27;26.20;99.90
8780;DHT22;62328;51.19929245;4.42130175;2023-08-21T13:06:55;26.30;99.90
8780;DHT22;62328;51.19929245;4.42130175;2023-08-21T13:09:24;26.30;99.90
8780;DHT22;62328;51.19929245;4.42130175;2023-08-21T13:11:51;26.50;99.90
8780;DHT22;62328;51.19929245;4.42130175;2023-08-21T13:14:18;26.60;99.90
8780;DHT22;62328;51.19929245;4.42130175;2023-08-21T13:16:45;26.70;99.90
8780;DHT22;62328;51.19929245;4.42130175;2023-08-21T13:19:12;26.80;99.90
8780;DHT22;62328;51.19929245;4.42130175;2023-08-21T13:21:39;26.80;99.90
8780;DHT22;62328;51.19929245;4.42130175;2023-08-21T13:24:07;26.90;99.90
8780;DHT22;62328;51.19929245;4.42130175;2023-08-21T13:26:34;26.80;99.90
8780;DHT22;62328;51.19929245;4.42130175;2023-08-21T13:29:01;26.90;99.90
8780;DHT22;62328;51.19929245;4.42130175;2023-08-21T13:31:28;26.90;99.90
8780;DHT22;62328;51.19929245;4.42130175;2023-08-21T13:33:55;27.00;99.90
8780;DHT22;62328;51.19929245;4.42130175;2023-08-21T13:36:22;26.90;99.90
8780;DHT22;62328;51.19929245;4.42130175;2023-08-21T13:38:49;27.10;99.90
8780;DHT22;62328;51.19929245;4.42130175;2023-08-21T13:41:17;27.20;99.90
8780;DHT22;62328;51.19929245;4.42130175;2023-08-21T13:43:44;27.30;99.90